Latest Weather Observations for Walpeup RS

IDV60801

Issued at 6:02 pm EST Saturday 30 May 2015 (issued every 30 minutes, with the page automatically refreshed every 10 minutes)

About weather observations | Map of weather stations | Latest weather observations for VIC | Other Formats
Station Details ID: 076064 Name: WALPEUP RESEARCH Lat: -35.12 Lon: 142.00 Height: 105.0 m
Data from the previous 72 hours. | See also: Recent months at Walpeup RS
Date/Time
EST
Temp
°C
App
Temp
°C
Dew
Point
Rel
Hum
%
Delta-T
°C
Wind Press
QNH
hPa
Press
MSL
hPa
Rain
since 9 am
mm
Dir
 
Spd
km/h
Gust
km/h
Spd
kts
Gust
kts
30/06:00pm 12.7 10.1 4.2 56 3.9 NW 7 9 4 5 - - 0.0
30/05:30pm 14.0 10.6 4.0 51 4.6 NW 11 15 6 8 - - 0.0
30/05:00pm 15.9 12.2 4.3 46 5.4 WNW 13 17 7 9 - - 0.0
30/04:30pm 15.9 11.4 4.3 46 5.4 W 17 22 9 12 - - 0.0
30/04:00pm 16.9 12.4 4.3 43 6.0 WNW 17 22 9 12 - - 0.0
30/03:30pm 17.1 13.0 4.4 43 6.0 W 15 24 8 13 - - 0.0
30/03:00pm 17.2 12.2 4.5 43 6.0 WNW 20 30 11 16 - - 0.0
30/02:30pm 17.2 11.9 4.9 44 5.9 WNW 22 30 12 16 - - 0.0
30/02:00pm 17.3 12.0 4.9 44 5.9 WNW 22 28 12 15 - - 0.0
30/01:30pm 17.0 11.7 5.0 45 5.8 WNW 22 33 12 18 - - 0.0
30/01:00pm 16.7 11.0 4.7 45 5.7 WNW 24 33 13 18 - - 0.0
30/12:30pm 16.3 11.1 5.3 48 5.3 WNW 22 30 12 16 - - 0.0
30/12:00pm 15.8 11.2 6.3 53 4.6 WNW 20 30 11 16 - - 0.0
30/11:30am 15.2 10.6 5.7 53 4.6 WNW 19 24 10 13 - - 0.0
30/11:00am 14.9 10.8 6.2 56 4.2 NW 17 22 9 12 - - 0.0
30/10:30am 13.9 10.8 7.4 65 3.2 WNW 13 20 7 11 - - 0.0
30/10:00am 13.1 10.3 7.1 67 2.9 WNW 11 15 6 8 - - 0.0
30/09:30am 12.2 9.6 6.3 67 2.8 WNW 9 13 5 7 - - 0.0
30/09:00am 11.1 9.2 6.6 74 2.1 NNW 6 7 3 4 - - 0.0
30/08:30am 10.4 8.2 6.2 75 2.0 NNW 7 9 4 5 - - 0.0
30/08:00am 10.2 8.0 6.4 77 1.8 N 7 11 4 6 - - 0.0
30/07:30am 9.8 7.5 5.8 76 1.8 NNW 7 7 4 4 - - 0.0
30/07:00am 9.5 7.8 5.7 77 1.7 NW 4 6 2 3 - - 0.0
30/06:30am 9.7 8.0 5.9 77 1.8 N 4 6 2 3 - - 0.0
30/06:00am 9.4 8.0 5.6 77 1.7 NW 2 4 1 2 - - 0.0
30/05:30am 9.2 8.2 5.6 78 1.6 CALM 0 0 0 0 - - 0.0
30/05:00am 9.3 8.2 5.3 76 1.8 CALM 0 4 0 2 - - 0.0
30/04:30am 9.3 8.3 5.5 77 1.7 CALM 0 0 0 0 - - 0.0
30/04:00am 8.7 7.6 4.9 77 1.7 CALM 0 0 0 0 - - 0.0
30/03:30am 9.8 8.4 5.4 74 2.0 NW 2 6 1 3 - - 0.0
30/03:00am 10.1 8.6 5.1 71 2.3 NW 2 4 1 2 - - 0.0
30/02:30am 10.3 8.0 4.9 69 2.5 NW 6 11 3 6 - - 0.0
30/02:00am 10.1 7.8 4.9 70 2.4 WNW 6 11 3 6 - - 0.0
30/01:30am 10.3 8.4 4.7 68 2.5 NW 4 6 2 3 - - 0.0
30/01:00am 10.3 8.8 4.9 69 2.5 NNW 2 4 1 2 - - 0.0
30/12:30am 10.2 7.9 5.0 70 2.4 NW 6 7 3 4 - - 0.0
30/12:00am 9.1 6.7 4.3 72 2.1 NW 6 6 3 3 - - 0.0
 
Date/Time
EST
Temp
°C
App
Temp
°C
Dew
Point
Rel
Hum
%
Delta-T
°C
Wind Press
QNH
hPa
Press
MSL
hPa
Rain
since 9 am
mm
Dir
 
Spd
km/h
Gust
km/h
Spd
kts
Gust
kts
29/11:30pm 9.6 7.6 4.2 69 2.4 NW 4 6 2 3 - - 0.0
29/11:00pm 10.1 8.9 4.5 68 2.5 CALM 0 2 0 1 - - 0.0
29/10:30pm 10.4 8.4 4.3 66 2.7 NW 4 6 2 3 - - 0.0
29/10:00pm 10.2 7.7 4.6 68 2.5 NW 7 9 4 5 - - 0.0
29/09:30pm 9.7 7.2 3.9 67 2.6 NW 6 7 3 4 - - 0.0
29/09:00pm 9.9 7.4 3.6 65 2.8 NW 6 6 3 3 - - 0.0
29/08:30pm 10.1 7.4 3.8 65 2.8 NW 7 9 4 5 - - 0.0
29/08:00pm 10.5 7.9 4.0 64 2.9 NW 7 9 4 5 - - 0.0
29/07:30pm 10.3 7.8 4.0 65 2.8 NW 6 6 3 3 - - 0.0
29/07:00pm 11.1 8.7 4.1 62 3.1 NW 6 6 3 3 - - 0.0
29/06:30pm 12.3 10.2 4.0 57 3.8 W 4 6 2 3 - - 0.0
29/06:00pm 13.1 10.7 4.3 55 4.0 W 6 7 3 4 - - 0.0
29/05:30pm 13.6 11.6 4.5 54 4.2 W 4 6 2 3 - - 0.0
29/05:00pm 14.9 12.3 4.3 49 4.9 WNW 7 9 4 5 - - 0.0
29/04:30pm 15.9 12.1 3.7 44 5.6 WNW 13 19 7 10 - - 0.0
29/04:00pm 16.1 11.6 4.2 45 5.6 WNW 17 22 9 12 - - 0.0
29/03:30pm 16.6 12.3 5.3 47 5.4 WNW 17 22 9 12 - - 0.0
29/03:00pm 17.4 13.9 5.4 45 5.8 WNW 13 20 7 11 - - 0.0
29/02:30pm 16.2 12.7 5.5 49 5.2 WNW 13 20 7 11 - - 0.0
29/02:00pm 15.2 12.1 5.7 53 4.6 W 11 17 6 9 - - 0.0
29/01:30pm 16.9 14.4 6.7 51 5.1 W 9 15 5 8 - - 0.0
29/01:00pm 15.9 13.0 6.3 53 4.7 WSW 11 17 6 9 - - 0.0
29/12:30pm 15.6 13.0 6.1 53 4.6 W 9 17 5 9 - - 0.0
29/12:00pm 15.1 12.4 7.4 60 3.8 WNW 11 17 6 9 - - 0.0
29/11:30am 14.8 12.7 8.3 65 3.3 W 9 17 5 9 - - 0.0
29/11:00am 14.1 12.2 9.1 72 2.6 W 9 15 5 8 - - 0.0
29/10:30am 13.3 11.2 9.9 80 1.8 WNW 11 17 6 9 - - 0.0
29/10:00am 12.5 11.9 12.3 99 0.1 WNW 7 11 4 6 - - 0.0
29/09:30am 10.9 10.1 10.9 100 0.0 NW 6 7 3 4 - - 0.0
29/09:00am 10.0 8.9 10.0 100 0.0 WNW 6 9 3 5 - - 0.0
29/08:30am 9.2 8.3 9.2 100 0.0 NW 4 4 2 2 - - 0.0
29/08:00am 8.6 7.5 8.6 100 0.0 WNW 4 4 2 2 - - 0.0
29/07:30am 9.0 7.5 9.0 100 0.0 WNW 7 9 4 5 - - 0.0
29/07:00am 9.2 7.9 9.2 100 0.0 WNW 6 7 3 4 - - 0.0
29/06:30am 10.2 9.2 10.2 100 0.0 WNW 6 7 3 4 - - 0.0
29/06:00am 10.5 9.0 10.5 100 0.0 WNW 9 11 5 6 - - 0.0
29/05:30am 10.5 9.0 10.5 100 0.0 WNW 9 11 5 6 - - 0.0
29/05:00am 10.4 9.4 10.4 100 0.0 W 6 7 3 4 - - 0.0
29/04:30am 10.1 9.0 10.0 99 0.1 WNW 6 7 3 4 - - 0.0
29/04:00am 10.1 8.8 10.0 99 0.1 WNW 7 9 4 5 - - 0.0
29/03:30am 10.5 9.4 10.0 97 0.3 WNW 6 6 3 3 - - 0.0
29/03:00am 10.8 9.8 10.2 96 0.3 WNW 6 6 3 3 - - 0.0
29/02:30am 10.8 10.1 10.0 95 0.4 NW 4 6 2 3 - - 0.0
29/02:00am 10.9 9.6 9.8 93 0.6 WNW 7 9 4 5 - - 0.0
29/01:30am 10.9 9.5 9.7 92 0.6 WNW 7 11 4 6 - - 0.0
29/01:00am 10.7 9.3 9.0 89 0.8 WNW 6 9 3 5 - - 0.0
29/12:30am 10.2 8.6 8.8 91 0.7 WNW 7 9 4 5 - - 0.0
29/12:00am 9.4 7.5 7.7 89 0.8 NW 7 9 4 5 - - 0.0
 
Date/Time
EST
Temp
°C
App
Temp
°C
Dew
Point
Rel
Hum
%
Delta-T
°C
Wind Press
QNH
hPa
Press
MSL
hPa
Rain
since 9 am
mm
Dir
 
Spd
km/h
Gust
km/h
Spd
kts
Gust
kts
28/11:30pm 9.5 7.7 7.1 85 1.1 WNW 6 7 3 4 - - 0.0
28/11:00pm 9.7 8.2 6.8 82 1.4 WNW 4 6 2 3 - - 0.0
28/10:30pm 10.9 9.1 7.0 77 1.9 W 6 7 3 4 - - 0.0
28/10:00pm 11.4 9.4 6.9 74 2.2 WSW 7 9 4 5 - - 0.0
28/09:30pm 12.4 10.0 7.1 70 2.6 WSW 9 13 5 7 - - 0.0
28/09:00pm 12.8 10.9 6.8 67 2.9 WNW 6 7 3 4 - - 0.0
28/08:30pm 13.2 11.1 6.5 64 3.2 WNW 7 9 4 5 - - 0.0
28/08:00pm 13.6 11.1 6.5 62 3.4 WNW 9 11 5 6 - - 0.0
28/07:30pm 14.5 11.9 6.1 57 4.0 WNW 9 11 5 6 - - 0.0
28/07:00pm 15.2 12.6 6.2 55 4.4 WNW 9 13 5 7 - - 0.0
28/06:30pm 15.9 13.3 6.3 53 4.7 WNW 9 11 5 6 - - 0.0
28/06:00pm 16.8 14.2 6.0 49 5.3 W 9 11 5 6 - - 0.0
28/05:30pm 17.8 14.0 5.7 45 5.9 NW 15 19 8 10 - - 0.0
28/05:00pm 19.3 14.4 5.0 39 7.0 NW 20 28 11 15 - - 0.0
28/04:30pm 19.9 15.5 7.3 44 6.5 NW 20 24 11 13 - - 0.0
28/04:00pm 20.6 15.3 6.9 41 7.0 NW 24 32 13 17 - - 0.0
28/03:30pm 20.4 15.5 7.1 42 6.8 NW 22 33 12 18 - - 0.0
28/03:00pm 20.7 15.9 7.3 42 6.9 WNW 22 32 12 17 - - 0.0
28/02:30pm 20.5 16.2 7.8 44 6.6 WNW 20 28 11 15 - - 0.0
28/02:00pm 20.6 16.4 8.3 45 6.4 WNW 20 30 11 16 - - 0.0
28/01:30pm 20.1 16.1 8.1 46 6.2 NW 19 24 10 13 - - 0.0
28/01:00pm 20.1 16.0 7.8 45 6.4 NW 19 22 10 12 - - 0.0
28/12:30pm 19.8 15.4 7.5 45 6.3 NNW 20 28 11 15 - - 0.0
28/12:00pm 19.0 14.5 7.1 46 6.0 NW 20 28 11 15 - - 0.0
28/11:30am 18.0 14.1 7.1 49 5.5 NW 17 22 9 12 - - 0.0
28/11:00am 17.0 14.5 8.4 57 4.4 NW 11 15 6 8 - - 0.0
28/10:30am 15.7 13.3 8.7 63 3.6 NW 11 15 6 8 - - 0.0
28/10:00am 15.3 12.2 8.8 65 3.3 NNW 15 22 8 12 - - 0.0
28/09:30am 12.7 10.3 8.8 77 2.0 N 11 22 6 12 - - 0.0
28/09:00am 12.1 8.5 8.2 77 1.9 N 17 20 9 11 - - 0.2
28/08:30am 11.6 7.7 7.3 75 2.1 N 17 22 9 12 - - 0.2
28/08:00am 11.4 7.1 7.1 75 2.1 N 19 26 10 14 - - 0.2
28/07:30am 11.3 7.4 7.2 76 2.0 N 17 22 9 12 - - 0.2
28/07:00am 11.1 7.2 7.0 76 2.0 N 17 20 9 11 - - 0.2
28/06:30am 10.8 7.2 6.9 77 1.9 N 15 17 8 9 - - 0.2
28/06:00am 10.9 7.3 6.8 76 2.0 N 15 17 8 9 - - 0.2
28/05:30am 10.4 8.0 7.1 80 1.6 N 9 11 5 6 - - 0.2
28/05:00am 10.6 8.1 6.6 76 1.9 NNW 9 13 5 7 - - 0.2
28/04:30am 12.4 9.6 7.1 70 2.6 N 11 15 6 8 - - 0.2
28/04:00am 10.9 8.9 7.0 77 1.9 N 7 13 4 7 - - 0.2
28/03:30am 13.8 10.7 7.3 65 3.2 NNE 13 17 7 9 - - 0.2
28/03:00am 12.6 9.9 7.3 70 2.6 N 11 13 6 7 - - 0.2
28/02:30am 14.2 10.8 7.5 64 3.3 N 15 20 8 11 - - 0.2
28/02:00am 11.9 9.6 7.4 74 2.2 NNW 9 13 5 7 - - 0.2
28/01:30am 13.1 10.1 7.5 69 2.7 NNE 13 17 7 9 - - 0.2
28/01:00am 13.6 11.0 7.6 67 3.0 N 11 13 6 7 - - 0.2
28/12:30am 12.9 10.2 7.4 69 2.7 N 11 13 6 7 - - 0.2
28/12:00am 14.2 12.4 7.0 62 3.5 N 6 7 3 4 - - 0.2
 
Date/Time
EST
Temp
°C
App
Temp
°C
Dew
Point
Rel
Hum
%
Delta-T
°C
Wind Press
QNH
hPa
Press
MSL
hPa
Rain
since 9 am
mm
Dir
 
Spd
km/h
Gust
km/h
Spd
kts
Gust
kts
27/11:30pm 13.6 11.7 7.4 66 3.0 N 7 9 4 5 - - 0.2
27/11:00pm 14.0 12.1 7.5 65 3.2 N 7 9 4 5 - - 0.2
27/10:30pm 14.7 13.0 7.5 62 3.6 NNW 6 6 3 3 - - 0.2
27/10:00pm 14.5 13.8 7.1 61 3.6 CALM 0 0 0 0 - - 0.2
27/09:30pm 14.2 13.5 7.0 62 3.5 CALM 0 0 0 0 - - 0.2
27/09:00pm 13.9 12.4 7.0 63 3.4 W 4 4 2 2 - - 0.2
27/08:30pm 13.9 13.2 7.0 63 3.4 CALM 0 0 0 0 - - 0.2
27/08:00pm 14.9 12.5 7.2 60 3.8 N 9 9 5 5 - - 0.2
27/07:30pm 16.1 13.3 7.1 55 4.5 NNW 11 13 6 7 - - 0.2
27/07:00pm 16.4 14.1 7.6 56 4.4 NNW 9 11 5 6 - - 0.2
27/06:30pm 16.6 14.3 7.5 55 4.6 NNW 9 13 5 7 - - 0.2

Other Formats:

Comma delimited format used in spreadsheet applications
http://www.bom.gov.au/fwo/IDV60801/IDV60801.95831.axf

JavaScript Object Notation format (JSON) in row-major order
http://www.bom.gov.au/fwo/IDV60801/IDV60801.95831.json